This is the latest recevied weather packets stored in our database for station/object KD8TSA. If no packets are shown the sender has not sent any weather packets the latest 10 day(s).
| Time | Temp. | Humidity | Pressure | Rain* | Wind** | Luminosity | Snow |
|---|---|---|---|---|---|---|---|
| 1777869510 | 10.56° C | 71% | 1012.1 hPa | 0 mm | - | 0 W/m² | - |
| 1777869207 | 10.56° C | 72% | 1012.3 hPa | 0 mm | - | 0 W/m² | - |
| 1777868904 | 10.56° C | 72% | 1012.4 hPa | 0 mm | - | 0 W/m² | - |
| 1777868601 | 11.11° C | 72% | 1012.3 hPa | 0 mm | - | 0 W/m² | - |
| 1777868297 | 11.11° C | 71% | 1012.4 hPa | 0 mm | - | 0 W/m² | - |
| 1777867993 | 10.56° C | 72% | 1012.4 hPa | 0 mm | - | 0 W/m² | - |
| 1777867690 | 10.56° C | 72% | 1012.6 hPa | 0 mm | - | 0 W/m² | - |
| 1777867083 | 10.56° C | 73% | 1012.5 hPa | 0 mm | - | 0 W/m² | - |
| 1777865872 | 10° C | 73% | 1012.9 hPa | 0 mm | - | 0 W/m² | - |
| 1777865570 | 10.56° C | 72% | 1012.7 hPa | 0 mm | - | 0 W/m² | - |
| 1777864660 | 10.56° C | 70% | 1012.7 hPa | 0 mm | - | 0 W/m² | - |
| 1777864358 | 11.11° C | 70% | 1012.6 hPa | 0 mm | - | 0 W/m² | - |
| 1777864053 | 11.11° C | 69% | 1013 hPa | 0 mm | - | 0 W/m² | - |
| 1777847680 | 13.89° C | 58% | 1013.7 hPa | 0 mm | - | 80 W/m² | - |
| 1777846772 | 13.33° C | 56% | 1013.7 hPa | 0 mm | - | 165 W/m² | - |
| 1777845560 | 12.78° C | 61% | 1013.8 hPa | 0 mm | - | 54 W/m² | - |
| 1777842834 | 15° C | 50% | 1014.8 hPa | 0 mm | - | 72 W/m² | - |
| 1777841315 | 15.56° C | 49% | 1014.4 hPa | 0 mm | - | 169 W/m² | - |
| 1777840710 | 16.11° C | 49% | 1014 hPa | 0 mm | - | 216 W/m² | - |
| 1777840407 | 16.67° C | 48% | 1014 hPa | 0 mm | - | 245 W/m² | - |
| 1777840104 | 17.78° C | 46% | 1014.3 hPa | 0 mm | - | 490 W/m² | - |
| 1777839802 | 17.22° C | 48% | 1014.1 hPa | 0 mm | - | 532 W/m² | - |
| 1777839500 | 17.22° C | 46% | 1014.3 hPa | 0 mm | - | 501 W/m² | - |
| 1777837984 | 16.67° C | 47% | 1014.9 hPa | 0 mm | - | 605 W/m² | - |
| 1777835555 | 17.22° C | 49% | 1015.5 hPa | 0 mm | - | 697 W/m² | - |
* Rain latest hour (hover to see other rain measurements)
** Current wind speed in m/s (hover to see current wind gust speed)